Terminal Aerodrome Forecast
Issued by NWS Spokane, WA

Home | Current Version | Previous Version | Text Only | Print | Product List | Glossary On
Versions: 1 2 3 4 5 6 7 8 9 10 11 12 13 14 15 16 17 18 19 20 21 22 23 24 25 26 27 28
000
FTUS46 KOTX 211739
TAFEAT
TAF
KEAT 211739Z 2118/2218 32008KT P6SM FEW100
     FM212100 13006KT P6SM FEW080 SCT120
     FM212300 VRB05KT P6SM VCTS FEW080CB BKN120
     FM220300 31009KT P6SM -SHRA SCT060 BKN080=

USA.gov is the U.S. government's official web portal to all federal, state and local government web resources and services.